createdAt,value
2022-08-04T00:02:14.121Z,23.42
2022-08-04T00:04:47.291Z,23.13
2022-08-04T00:07:44.183Z,23.23
2022-08-04T00:10:11.909Z,23.63
2022-08-04T00:12:54.934Z,23.57
2022-08-04T00:15:23.362Z,23.59
2022-08-04T00:17:54.898Z,23.50
2022-08-04T00:20:23.353Z,23.17
2022-08-04T00:22:53.946Z,23.04
2022-08-04T00:25:22.488Z,23.37
2022-08-04T00:27:50.919Z,23.24
2022-08-04T00:30:19.019Z,23.38
2022-08-04T00:32:47.423Z,23.36
2022-08-04T00:35:16.520Z,23.10
2022-08-04T00:37:45.953Z,22.82
2022-08-04T00:40:26.848Z,22.89
2022-08-04T00:43:08.213Z,22.98
2022-08-04T00:46:15.017Z,22.91
2022-08-04T00:48:57.242Z,22.98
2022-08-04T00:51:31.996Z,22.92
2022-08-04T00:54:09.408Z,23.03
2022-08-04T00:56:57.231Z,22.61
2022-08-04T00:59:34.442Z,22.55
2022-08-04T01:02:08.246Z,22.64
2022-08-04T01:04:50.008Z,22.62
2022-08-04T01:07:36.126Z,22.49
2022-08-04T01:10:07.875Z,22.37
2022-08-04T01:12:53.416Z,22.23
2022-08-04T01:15:26.407Z,22.48
2022-08-04T01:18:06.399Z,22.29
2022-08-04T01:20:36.312Z,22.02
2022-08-04T01:23:30.049Z,21.67
2022-08-04T01:26:43.610Z,21.60
2022-08-04T01:29:12.422Z,21.59
2022-08-04T01:32:03.759Z,21.41
2022-08-04T01:34:36.296Z,21.41
2022-08-04T01:37:10.304Z,21.43
2022-08-04T01:39:46.365Z,21.32
2022-08-04T01:42:32.010Z,21.41
2022-08-04T01:45:02.723Z,21.20
2022-08-04T01:47:31.898Z,21.50
2022-08-04T01:50:06.342Z,21.21
2022-08-04T01:52:36.235Z,21.35
2022-08-04T01:55:07.242Z,21.44
2022-08-04T01:57:38.270Z,21.43
2022-08-04T02:00:10.400Z,21.52
2022-08-04T02:02:38.573Z,21.46
2022-08-04T02:05:07.119Z,21.24
2022-08-04T02:07:44.328Z,21.09
2022-08-04T02:10:24.505Z,21.13
2022-08-04T02:12:59.274Z,21.37
2022-08-04T02:15:32.045Z,21.60
2022-08-04T02:18:05.184Z,21.64
2022-08-04T02:20:36.576Z,21.58
2022-08-04T02:23:11.310Z,21.59
2022-08-04T02:25:42.375Z,21.68
2022-08-04T02:28:19.342Z,21.66
2022-08-04T02:30:56.308Z,21.43
2022-08-04T02:33:28.312Z,21.47
2022-08-04T02:36:02.357Z,21.37
2022-08-04T02:38:42.260Z,21.20
2022-08-04T02:41:10.857Z,21.09
2022-08-04T02:43:51.619Z,21.26
2022-08-04T02:46:23.098Z,21.43
2022-08-04T02:48:53.102Z,21.72
2022-08-04T02:51:24.307Z,21.81
2022-08-04T02:53:55.713Z,21.82
2022-08-04T02:56:25.181Z,21.53
2022-08-04T02:58:54.883Z,21.27
2022-08-04T03:01:25.152Z,21.16
2022-08-04T03:04:00.264Z,21.00
2022-08-04T03:07:00.588Z,21.06
2022-08-04T03:10:01.499Z,21.32
2022-08-04T03:13:04.342Z,21.30
2022-08-04T03:16:09.398Z,21.19
2022-08-04T03:19:18.857Z,21.05
2022-08-04T03:22:20.097Z,21.33
2022-08-04T03:25:25.135Z,21.26
2022-08-04T03:28:28.756Z,21.26
2022-08-04T03:31:37.135Z,21.05
2022-08-04T03:34:16.740Z,20.73
2022-08-04T03:37:11.839Z,20.99
2022-08-04T03:40:18.978Z,21.06
2022-08-04T03:43:58.807Z,20.92
2022-08-04T03:46:48.410Z,21.18
2022-08-04T03:49:43.898Z,21.11
2022-08-04T03:52:47.225Z,21.06
2022-08-04T03:55:51.569Z,21.11
2022-08-04T03:58:54.941Z,20.72
2022-08-04T04:02:01.291Z,20.71
2022-08-04T04:05:01.192Z,20.97
2022-08-04T04:08:19.051Z,21.15
2022-08-04T04:11:29.404Z,21.18
2022-08-04T04:14:13.037Z,21.18
2022-08-04T04:16:55.427Z,21.25
2022-08-04T04:19:58.676Z,21.39
2022-08-04T04:22:47.879Z,21.26
2022-08-04T04:25:30.486Z,21.30
2022-08-04T04:28:44.599Z,21.12
2022-08-04T04:31:28.366Z,21.47
2022-08-04T04:34:03.153Z,21.36
2022-08-04T04:36:41.576Z,21.37
2022-08-04T04:39:15.925Z,21.13
2022-08-04T04:41:55.123Z,20.98
2022-08-04T04:44:57.058Z,20.81
2022-08-04T04:48:03.537Z,20.79
2022-08-04T04:50:30.081Z,20.82
2022-08-04T04:53:11.250Z,20.88
2022-08-04T04:55:48.112Z,21.00
2022-08-04T04:58:18.807Z,21.04
2022-08-04T05:00:59.096Z,21.13
2022-08-04T05:03:50.380Z,21.18
2022-08-04T05:06:28.211Z,21.34
2022-08-04T05:09:09.212Z,21.46
2022-08-04T05:12:02.395Z,21.47
2022-08-04T05:14:41.004Z,21.36
2022-08-04T05:17:17.102Z,21.26
2022-08-04T05:19:53.550Z,21.50
2022-08-04T05:22:25.778Z,21.81
2022-08-04T05:25:00.450Z,21.88
2022-08-04T05:27:32.940Z,21.95
2022-08-04T05:30:06.110Z,22.11
2022-08-04T05:32:42.781Z,22.32
2022-08-04T05:35:16.808Z,22.47
2022-08-04T05:38:07.658Z,22.58
2022-08-04T05:40:39.769Z,22.60
2022-08-04T05:43:08.356Z,22.64
2022-08-04T05:45:38.995Z,22.70
2022-08-04T05:48:09.707Z,22.75
2022-08-04T05:50:38.113Z,22.81
2022-08-04T05:53:07.291Z,22.99
2022-08-04T05:55:58.382Z,23.04
2022-08-04T05:58:25.135Z,23.14
2022-08-04T06:00:54.168Z,23.25
2022-08-04T06:03:22.917Z,23.31
2022-08-04T06:05:51.737Z,23.45
2022-08-04T06:08:19.953Z,23.63
2022-08-04T06:10:49.729Z,23.54
2022-08-04T06:13:47.602Z,23.72
2022-08-04T06:16:29.075Z,23.77
2022-08-04T06:20:02.307Z,23.99
2022-08-04T06:21:51.875Z,24.02
2022-08-04T06:24:22.170Z,24.05
2022-08-04T06:26:52.055Z,24.14
2022-08-04T06:29:25.543Z,24.24
2022-08-04T06:32:27.157Z,24.53
2022-08-04T06:34:48.023Z,24.78
2022-08-04T06:37:41.222Z,24.81
2022-08-04T06:40:29.822Z,24.79
2022-08-04T06:42:57.520Z,24.97
2022-08-04T06:45:26.437Z,24.91
2022-08-04T06:47:55.036Z,25.00
2022-08-04T06:51:25.335Z,25.19
2022-08-04T06:53:12.102Z,25.34
2022-08-04T06:55:42.465Z,25.73
2022-08-04T06:58:12.503Z,25.71
2022-08-04T07:00:42.204Z,25.82
2022-08-04T07:03:12.477Z,25.88
2022-08-04T07:05:41.707Z,26.14
2022-08-04T07:08:11.848Z,26.10
2022-08-04T07:10:40.633Z,26.30
2022-08-04T07:13:09.604Z,26.56
2022-08-04T07:15:41.131Z,26.63
2022-08-04T07:18:09.222Z,26.79
2022-08-04T07:20:37.324Z,26.91
2022-08-04T07:23:05.734Z,27.06
2022-08-04T07:25:59.651Z,27.14
2022-08-04T07:28:25.248Z,27.32
2022-08-04T07:30:55.547Z,27.40
2022-08-04T07:33:27.631Z,27.49
2022-08-04T07:36:04.975Z,27.49
2022-08-04T07:38:48.816Z,27.64
2022-08-04T07:41:40.633Z,27.79
2022-08-04T07:44:09.789Z,27.98
2022-08-04T07:46:39.285Z,28.20
2022-08-04T07:49:07.633Z,28.25
2022-08-04T07:51:37.314Z,28.40
2022-08-04T07:54:07.723Z,28.48
2022-08-04T07:56:37.455Z,28.71
2022-08-04T07:59:06.293Z,28.88
2022-08-04T08:01:34.604Z,28.97
2022-08-04T08:04:06.792Z,29.16
2022-08-04T08:06:42.732Z,29.23
2022-08-04T08:09:14.522Z,29.40
2022-08-04T08:12:37.957Z,29.58
2022-08-04T08:14:31.910Z,29.70
2022-08-04T08:17:01.628Z,29.87
2022-08-04T08:19:31.230Z,29.99
2022-08-04T08:22:00.894Z,30.03
2022-08-04T08:24:29.930Z,29.94
2022-08-04T08:26:58.274Z,29.77
2022-08-04T08:29:27.440Z,29.82
2022-08-04T08:32:01.504Z,29.90
2022-08-04T08:34:32.668Z,30.19
2022-08-04T08:37:06.376Z,30.19
2022-08-04T08:39:39.618Z,30.34
2022-08-04T08:42:48.928Z,30.58
2022-08-04T08:45:31.430Z,30.92
2022-08-04T08:48:17.867Z,31.12
2022-08-04T08:51:24.986Z,31.00
2022-08-04T08:54:00.998Z,30.95
2022-08-04T08:56:35.298Z,31.07
2022-08-04T08:59:27.015Z,31.32
2022-08-04T09:02:16.182Z,31.54
2022-08-04T09:05:07.672Z,31.42
2022-08-04T09:08:03.412Z,31.40
2022-08-04T09:10:37.756Z,31.55
2022-08-04T09:13:12.277Z,31.52
2022-08-04T09:15:54.372Z,31.64
2022-08-04T09:18:27.316Z,31.93
2022-08-04T09:21:00.714Z,32.27
2022-08-04T09:23:45.257Z,32.02
2022-08-04T09:26:20.543Z,32.15
2022-08-04T09:28:55.146Z,32.36
2022-08-04T09:31:26.213Z,32.34
2022-08-04T09:34:01.647Z,32.44
2022-08-04T09:36:34.992Z,32.54
2022-08-04T09:39:13.484Z,32.55
2022-08-04T09:41:52.550Z,32.48
2022-08-04T09:44:48.776Z,32.51
2022-08-04T09:47:22.099Z,32.57
2022-08-04T09:49:57.008Z,32.13
2022-08-04T09:52:29.982Z,32.00
2022-08-04T09:55:07.040Z,32.03
2022-08-04T09:57:46.498Z,32.56
2022-08-04T10:00:17.190Z,32.33
2022-08-04T10:02:49.640Z,31.85
2022-08-04T10:05:21.910Z,31.87
2022-08-04T10:08:15.221Z,32.05
2022-08-04T10:10:53.595Z,32.19
2022-08-04T10:13:28.510Z,32.46
2022-08-04T10:16:17.186Z,32.83
2022-08-04T10:18:54.709Z,32.79
2022-08-04T10:21:31.623Z,32.63
2022-08-04T10:24:28.409Z,32.76
2022-08-04T10:27:02.721Z,33.25
2022-08-04T10:29:40.089Z,33.26
2022-08-04T10:32:12.812Z,33.15
2022-08-04T10:34:44.489Z,33.42
2022-08-04T10:37:21.182Z,33.64
2022-08-04T10:40:17.912Z,33.53
2022-08-04T10:43:00.174Z,33.40
2022-08-04T10:45:35.393Z,33.66
2022-08-04T10:48:10.763Z,33.85
2022-08-04T10:50:46.603Z,33.16
2022-08-04T10:53:19.401Z,33.59
2022-08-04T10:56:07.260Z,33.73
2022-08-04T10:58:47.698Z,34.00
2022-08-04T11:02:01.087Z,34.10
2022-08-04T11:04:26.761Z,34.31
2022-08-04T11:07:00.849Z,34.11
2022-08-04T11:09:30.207Z,33.77
2022-08-04T11:12:02.526Z,34.48
2022-08-04T11:14:36.551Z,34.58
2022-08-04T11:17:08.191Z,33.85
2022-08-04T11:19:45.079Z,34.17
2022-08-04T11:22:18.781Z,33.60
2022-08-04T11:24:52.011Z,33.95
2022-08-04T11:27:27.415Z,34.15
2022-08-04T11:30:05.134Z,34.64
2022-08-04T11:32:39.100Z,34.98
2022-08-04T11:35:16.381Z,34.83
2022-08-04T11:37:47.977Z,34.57
2022-08-04T11:40:22.746Z,35.17
2022-08-04T11:42:55.076Z,35.00
2022-08-04T11:45:32.421Z,35.37
2022-08-04T11:48:07.411Z,35.61
2022-08-04T11:50:42.253Z,35.76
2022-08-04T11:53:15.693Z,35.33
2022-08-04T11:56:07.749Z,35.35
2022-08-04T11:58:38.420Z,36.12
2022-08-04T12:01:21.721Z,35.86
2022-08-04T12:04:04.555Z,35.56
2022-08-04T12:07:04.694Z,35.27
2022-08-04T12:09:45.935Z,35.75
2022-08-04T12:12:21.495Z,36.13
2022-08-04T12:14:54.445Z,36.28
2022-08-04T12:17:33.644Z,35.60
2022-08-04T12:20:40.817Z,35.02
2022-08-04T12:23:11.408Z,35.50
2022-08-04T12:25:45.154Z,36.49
2022-08-04T12:28:18.759Z,35.77
2022-08-04T12:30:59.111Z,35.30
2022-08-04T12:33:41.364Z,36.08
2022-08-04T12:36:33.338Z,36.28
2022-08-04T12:39:06.550Z,36.25
2022-08-04T12:41:40.208Z,36.43
2022-08-04T12:44:33.382Z,36.45
2022-08-04T12:47:26.403Z,36.31
2022-08-04T12:50:00.130Z,36.79
2022-08-04T12:55:19.735Z,37.13
2022-08-04T12:57:48.546Z,37.01
2022-08-04T13:00:31.251Z,36.86
2022-08-04T13:03:09.849Z,35.98
2022-08-04T13:05:43.121Z,35.95
2022-08-04T13:08:16.472Z,36.22
2022-08-04T13:10:47.939Z,36.03
2022-08-04T13:13:18.912Z,35.75
2022-08-04T13:16:00.333Z,35.91
2022-08-04T13:21:23.116Z,36.38
2022-08-04T13:24:22.665Z,36.89
2022-08-04T13:27:03.571Z,35.43
2022-08-04T13:29:59.769Z,35.82
2022-08-04T13:30:24.088Z,36.40
2022-08-04T13:32:25.997Z,36.62
2022-08-04T13:34:55.868Z,37.34
2022-08-04T13:37:28.241Z,36.84
2022-08-04T13:39:57.143Z,37.35
2022-08-04T13:42:27.274Z,37.54
2022-08-04T13:44:57.959Z,37.28
2022-08-04T13:47:32.153Z,36.80
2022-08-04T13:50:19.641Z,36.79
2022-08-04T13:52:53.795Z,36.01
2022-08-04T13:55:24.994Z,36.65
2022-08-04T13:57:57.398Z,36.27
2022-08-04T14:00:30.090Z,36.43
2022-08-04T14:03:23.211Z,36.19
2022-08-04T14:06:14.432Z,36.41
2022-08-04T14:08:51.081Z,36.44
2022-08-04T14:12:09.445Z,36.73
2022-08-04T14:14:19.879Z,36.76
2022-08-04T14:17:01.671Z,36.89
2022-08-04T14:19:45.974Z,36.09
2022-08-04T14:22:29.531Z,34.88
2022-08-04T14:25:01.890Z,36.13
2022-08-04T14:27:30.540Z,36.15
2022-08-04T14:30:01.353Z,35.23
2022-08-04T14:32:29.527Z,33.59
2022-08-04T14:34:57.819Z,34.50
2022-08-04T14:37:25.956Z,34.85
2022-08-04T14:40:07.846Z,33.69
2022-08-04T14:42:54.901Z,33.28
2022-08-04T14:45:34.469Z,32.50
2022-08-04T14:48:03.714Z,31.15
2022-08-04T14:50:37.491Z,31.51
2022-08-04T14:53:08.530Z,31.71
2022-08-04T14:55:37.688Z,31.90
2022-08-04T14:58:36.578Z,30.91
2022-08-04T15:00:59.063Z,30.98
2022-08-04T15:03:28.235Z,31.40
2022-08-04T15:06:05.467Z,32.44
2022-08-04T15:08:36.502Z,30.90
2022-08-04T15:11:04.798Z,31.71
2022-08-04T15:13:35.061Z,30.43
2022-08-04T15:16:08.493Z,30.06
2022-08-04T15:18:44.179Z,30.39
2022-08-04T15:21:19.800Z,29.81
2022-08-04T15:23:47.991Z,28.79
2022-08-04T15:26:21.495Z,28.59
2022-08-04T15:28:53.783Z,28.21
2022-08-04T15:32:05.471Z,27.73
2022-08-04T15:34:14.911Z,28.17
2022-08-04T15:36:58.438Z,27.74
2022-08-04T15:39:35.995Z,27.33
2022-08-04T15:42:20.564Z,27.27
2022-08-04T15:45:22.438Z,26.75
2022-08-04T15:48:34.885Z,25.62
2022-08-04T15:51:14.464Z,25.63
2022-08-04T15:54:23.382Z,25.23
2022-08-04T15:57:01.357Z,26.33
2022-08-04T16:00:15.255Z,26.55
2022-08-04T16:02:45.163Z,26.75
2022-08-04T16:05:40.394Z,26.53
2022-08-04T16:08:16.032Z,26.60
2022-08-04T16:10:49.123Z,25.67
2022-08-04T16:13:19.889Z,27.73
2022-08-04T16:15:55.534Z,27.71
2022-08-04T16:18:41.038Z,27.89
2022-08-04T16:21:19.932Z,27.99
2022-08-04T16:24:11.255Z,28.20
2022-08-04T16:26:55.101Z,28.19
2022-08-04T16:29:39.030Z,27.65
2022-08-04T16:32:21.199Z,27.47
2022-08-04T16:34:56.487Z,27.70
2022-08-04T16:37:28.254Z,27.59
2022-08-04T16:40:37.435Z,28.41
2022-08-04T16:43:09.633Z,28.12
2022-08-04T16:45:42.520Z,28.82
2022-08-04T16:48:11.484Z,29.30
2022-08-04T16:51:04.837Z,29.26
2022-08-04T16:53:52.115Z,29.75
2022-08-04T16:56:30.356Z,29.96
2022-08-04T16:59:08.550Z,29.64
2022-08-04T17:01:36.766Z,29.61
2022-08-04T17:04:08.124Z,29.27
2022-08-04T17:06:43.210Z,29.00
2022-08-04T17:09:13.615Z,28.89
2022-08-04T17:11:42.462Z,28.72
2022-08-04T17:14:10.907Z,28.80
2022-08-04T17:16:41.077Z,28.08
2022-08-04T17:19:25.113Z,27.77
2022-08-04T17:22:02.187Z,28.12
2022-08-04T17:24:31.905Z,27.88
2022-08-04T17:27:00.163Z,27.71
2022-08-04T17:29:42.982Z,28.57
2022-08-04T17:32:15.955Z,28.36
2022-08-04T17:34:48.677Z,28.35
2022-08-04T17:37:39.102Z,29.06
2022-08-04T17:40:13.156Z,28.52
2022-08-04T17:42:45.018Z,28.80
2022-08-04T17:51:16.818Z,27.10
2022-08-04T17:54:02.656Z,26.73
2022-08-04T17:56:36.422Z,26.36
2022-08-04T17:59:48.255Z,26.22
2022-08-04T18:02:11.356Z,25.67
2022-08-04T18:05:05.916Z,26.00
2022-08-04T18:08:40.590Z,26.09
2022-08-04T18:10:39.714Z,25.18
2022-08-04T18:13:23.071Z,26.78
2022-08-04T18:15:52.025Z,25.81
2022-08-04T18:18:23.569Z,23.95
2022-08-04T18:20:51.977Z,25.15
2022-08-04T18:23:20.237Z,24.83
2022-08-04T18:26:03.510Z,25.60
2022-08-04T18:28:33.454Z,26.13
2022-08-04T18:31:02.438Z,25.79
2022-08-04T18:33:39.442Z,25.53
2022-08-04T18:36:32.464Z,25.36
2022-08-04T18:38:59.314Z,25.51
2022-08-04T18:42:01.298Z,25.27
2022-08-04T18:44:31.624Z,24.69
2022-08-04T18:47:19.631Z,24.79
2022-08-04T18:50:58.737Z,24.05
2022-08-04T18:52:36.441Z,24.44
2022-08-04T18:55:56.457Z,24.95
2022-08-04T18:58:07.059Z,25.00
2022-08-04T19:00:45.737Z,25.11
2022-08-04T19:03:16.500Z,23.60
2022-08-04T19:05:59.761Z,24.78
2022-08-04T19:08:35.022Z,24.53
2022-08-04T19:11:37.335Z,24.48
2022-08-04T19:13:58.629Z,24.70
2022-08-04T19:19:18.031Z,24.20
2022-08-04T19:22:01.155Z,24.09
2022-08-04T19:24:35.042Z,24.30
2022-08-04T19:27:07.516Z,23.70
2022-08-04T19:29:41.131Z,23.31
2022-08-04T19:32:14.448Z,22.89
2022-08-04T19:34:46.260Z,22.85
2022-08-04T19:37:57.780Z,23.58
2022-08-04T19:40:04.737Z,23.51
2022-08-04T19:42:33.031Z,23.91
2022-08-04T19:45:02.641Z,23.79
2022-08-04T19:50:18.815Z,23.47
2022-08-04T19:55:38.343Z,23.06
2022-08-04T19:58:10.142Z,23.75
2022-08-04T20:00:50.914Z,22.95
2022-08-04T20:06:08.063Z,23.06
2022-08-04T20:08:37.029Z,22.58
2022-08-04T20:11:08.191Z,23.19
2022-08-04T20:13:40.119Z,22.54
2022-08-04T20:16:28.329Z,23.31
2022-08-04T20:19:02.821Z,22.69
2022-08-04T20:21:53.478Z,22.25
2022-08-04T20:24:40.244Z,22.40
2022-08-04T20:27:11.805Z,21.79
2022-08-04T20:29:48.587Z,21.62
2022-08-04T20:32:20.132Z,22.09
2022-08-04T20:34:51.554Z,21.23
2022-08-04T20:40:11.076Z,21.36
2022-08-04T20:42:40.380Z,21.59
2022-08-04T20:45:16.514Z,21.96
2022-08-04T20:47:54.044Z,21.97
2022-08-04T20:50:30.066Z,21.91
2022-08-04T20:52:58.773Z,21.86
2022-08-04T20:55:29.498Z,21.46
2022-08-04T20:58:03.107Z,21.24
2022-08-04T21:00:32.152Z,21.74
2022-08-04T21:03:01.698Z,21.81
2022-08-04T21:05:31.542Z,21.18
2022-08-04T21:08:00.089Z,20.43
2022-08-04T21:10:28.463Z,21.19
2022-08-04T21:12:56.587Z,20.84
2022-08-04T21:15:50.713Z,20.27
2022-08-04T21:18:16.866Z,20.37
2022-08-04T21:20:45.432Z,20.53
2022-08-04T21:23:16.513Z,20.42
2022-08-04T21:25:45.689Z,20.47
2022-08-04T21:28:20.031Z,21.20
2022-08-04T21:30:54.592Z,21.74
2022-08-04T21:33:49.896Z,21.65
2022-08-04T21:36:16.140Z,21.46
2022-08-04T21:38:51.134Z,21.37
2022-08-04T21:41:25.110Z,21.01
2022-08-04T21:43:55.870Z,21.11
2022-08-04T21:46:24.054Z,20.51
2022-08-04T21:48:53.486Z,20.69
2022-08-04T21:51:57.824Z,20.24
2022-08-04T21:54:15.128Z,20.11
2022-08-04T21:56:51.385Z,20.69
2022-08-04T21:59:23.567Z,20.88
2022-08-04T22:01:56.670Z,20.43
2022-08-04T22:04:26.117Z,20.23
2022-08-04T22:06:54.159Z,20.86
2022-08-04T22:09:22.440Z,21.24
2022-08-04T22:11:52.114Z,21.59
2022-08-04T22:14:27.264Z,20.82
2022-08-04T22:16:57.760Z,20.27
2022-08-04T22:19:50.180Z,20.99
2022-08-04T22:22:25.425Z,20.63
2022-08-04T22:24:58.339Z,20.59
2022-08-04T22:27:44.025Z,20.65
2022-08-04T22:30:17.610Z,20.35
2022-08-04T22:32:47.006Z,20.14
2022-08-04T22:35:36.395Z,20.06
2022-08-04T22:38:25.387Z,20.60
2022-08-04T22:40:58.136Z,20.38
2022-08-04T22:43:32.091Z,20.75
2022-08-04T22:46:03.904Z,20.71
2022-08-04T22:48:33.784Z,20.89
2022-08-04T22:51:03.576Z,20.43
2022-08-04T22:53:31.624Z,20.35
2022-08-04T22:56:10.225Z,19.97
2022-08-04T22:58:45.922Z,20.77
2022-08-04T23:01:19.745Z,20.72
2022-08-04T23:03:55.876Z,20.46
2022-08-04T23:06:28.531Z,20.36
2022-08-04T23:08:57.016Z,19.45
2022-08-04T23:11:35.297Z,19.73
2022-08-04T23:14:05.782Z,20.48
2022-08-04T23:16:40.630Z,19.96
2022-08-04T23:19:15.178Z,19.68
2022-08-04T23:21:47.325Z,20.58
2022-08-04T23:24:16.037Z,20.75
2022-08-04T23:26:44.125Z,20.30
2022-08-04T23:29:12.611Z,20.37
2022-08-04T23:31:59.138Z,20.63
2022-08-04T23:34:29.124Z,20.96
2022-08-04T23:37:00.395Z,19.74
2022-08-04T23:40:03.460Z,20.92
2022-08-04T23:42:21.209Z,20.78
2022-08-04T23:44:49.677Z,21.19
2022-08-04T23:48:14.491Z,20.72
2022-08-04T23:50:06.298Z,19.94
2022-08-04T23:52:35.697Z,19.56
2022-08-04T23:55:03.715Z,19.25
2022-08-04T23:58:16.851Z,19.19
